createdAt,value
2023-04-10T00:00:43.301Z,28.60
2023-04-10T00:03:10.672Z,26.35
2023-04-10T00:05:37.945Z,30.67
2023-04-10T00:08:05.243Z,27.02
2023-04-10T00:10:33.457Z,26.70
2023-04-10T00:13:01.033Z,25.60
2023-04-10T00:15:28.909Z,25.48
2023-04-10T00:17:56.259Z,27.95
2023-04-10T00:20:26.299Z,30.27
2023-04-10T00:22:53.645Z,28.83
2023-04-10T00:25:23.046Z,29.77
2023-04-10T00:27:50.375Z,26.60
2023-04-10T00:30:17.532Z,30.98
2023-04-10T00:32:44.767Z,29.10
2023-04-10T00:35:12.188Z,27.10
2023-04-10T00:37:39.453Z,26.90
2023-04-10T00:40:07.242Z,30.67
2023-04-10T00:42:34.423Z,29.45
2023-04-10T00:45:01.710Z,29.60
2023-04-10T00:47:28.892Z,28.65
2023-04-10T00:49:56.293Z,31.25
2023-04-10T00:52:23.530Z,29.45
2023-04-10T00:54:50.920Z,30.35
2023-04-10T00:57:18.365Z,27.23
2023-04-10T00:59:45.881Z,28.90
2023-04-10T01:02:13.307Z,28.15
2023-04-10T01:04:41.049Z,27.27
2023-04-10T01:07:22.931Z,27.98
2023-04-10T01:10:10.614Z,31.00
2023-04-10T01:12:54.437Z,33.95
2023-04-10T01:15:23.587Z,26.75
2023-04-10T01:18:00.651Z,27.63
2023-04-10T01:20:30.121Z,29.60
2023-04-10T01:23:16.431Z,27.60
2023-04-10T01:25:47.212Z,29.10
2023-04-10T01:28:20.907Z,27.33
2023-04-10T01:30:53.000Z,35.08
2023-04-10T01:33:22.262Z,29.85
2023-04-10T01:35:54.201Z,36.28
2023-04-10T01:38:22.237Z,31.70
2023-04-10T01:40:52.182Z,32.90
2023-04-10T01:43:20.373Z,32.17
2023-04-10T01:45:48.951Z,28.40
2023-04-10T01:48:17.862Z,33.35
2023-04-10T01:50:46.394Z,27.92
2023-04-10T01:53:14.148Z,30.15
2023-04-10T01:55:41.959Z,26.83
2023-04-10T01:58:09.433Z,31.20
2023-04-10T02:00:43.519Z,26.42
2023-04-10T02:03:11.623Z,31.33
2023-04-10T02:05:57.803Z,24.77
2023-04-10T02:08:35.455Z,29.40
2023-04-10T02:11:03.531Z,28.83
2023-04-10T02:13:32.157Z,26.13
2023-04-10T02:16:02.154Z,27.50
2023-04-10T02:18:32.748Z,38.65
2023-04-10T02:20:59.977Z,38.22
2023-04-10T02:23:27.329Z,33.67
2023-04-10T02:25:56.996Z,32.10
2023-04-10T02:28:24.296Z,37.97
2023-04-10T02:30:51.536Z,31.25
2023-04-10T02:33:18.755Z,37.10
2023-04-10T02:35:45.997Z,37.97
2023-04-10T02:38:14.508Z,36.28
2023-04-10T02:40:42.862Z,34.50
2023-04-10T02:43:10.016Z,32.30
2023-04-10T02:45:37.142Z,31.63
2023-04-10T02:48:06.497Z,32.97
2023-04-10T02:50:33.876Z,37.17
2023-04-10T02:53:01.287Z,35.75
2023-04-10T02:55:28.439Z,37.03
2023-04-10T02:57:55.922Z,36.63
2023-04-10T03:00:23.584Z,30.77
2023-04-10T03:02:51.005Z,29.77
2023-04-10T03:05:18.359Z,29.80
2023-04-10T03:07:45.626Z,31.50
2023-04-10T03:10:12.905Z,28.52
2023-04-10T03:12:40.372Z,31.40
2023-04-10T03:15:08.084Z,32.75
2023-04-10T03:17:35.373Z,34.28
2023-04-10T03:20:02.612Z,43.80
2023-04-10T03:22:32.204Z,40.80
2023-04-10T03:24:59.460Z,38.60
2023-04-10T03:27:27.137Z,36.30
2023-04-10T03:29:54.430Z,34.88
2023-04-10T03:32:21.603Z,37.05
2023-04-10T03:34:48.835Z,37.33
2023-04-10T03:37:16.241Z,30.83
2023-04-10T03:39:43.424Z,30.42
2023-04-10T03:42:11.429Z,32.17
2023-04-10T03:44:38.996Z,31.23
2023-04-10T03:47:06.515Z,31.35
2023-04-10T03:49:33.810Z,32.22
2023-04-10T03:52:01.155Z,33.30
2023-04-10T03:54:28.686Z,31.92
2023-04-10T03:56:56.597Z,30.42
2023-04-10T03:59:31.042Z,31.65
2023-04-10T04:02:04.856Z,30.40
2023-04-10T04:04:32.337Z,33.08
2023-04-10T04:06:59.524Z,36.17
2023-04-10T04:09:26.669Z,51.20
2023-04-10T04:11:53.837Z,36.75
2023-04-10T04:14:21.238Z,35.92
2023-04-10T04:16:51.418Z,37.20
2023-04-10T04:19:19.800Z,39.40
2023-04-10T04:21:47.239Z,31.17
2023-04-10T04:24:14.912Z,34.38
2023-04-10T04:26:42.708Z,34.75
2023-04-10T04:29:10.198Z,34.13
2023-04-10T04:31:37.844Z,31.55
2023-04-10T04:34:06.330Z,39.53
2023-04-10T04:36:34.427Z,36.47
2023-04-10T04:39:02.160Z,39.22
2023-04-10T04:41:34.987Z,35.55
2023-04-10T04:44:12.356Z,33.45
2023-04-10T04:46:42.584Z,39.67
2023-04-10T04:49:11.986Z,33.97
2023-04-10T04:51:40.330Z,31.55
2023-04-10T04:54:13.079Z,34.33
2023-04-10T04:56:45.012Z,37.40
2023-04-10T04:59:12.990Z,38.90
2023-04-10T05:01:41.628Z,39.75
2023-04-10T05:04:10.944Z,40.28
2023-04-10T05:06:38.769Z,41.63
2023-04-10T05:09:06.934Z,38.80
2023-04-10T05:11:34.644Z,46.90
2023-04-10T05:14:02.164Z,40.05
2023-04-10T05:16:30.063Z,49.45
2023-04-10T05:19:00.699Z,52.58
2023-04-10T05:21:28.252Z,52.05
2023-04-10T05:23:57.943Z,60.80
2023-04-10T05:26:26.270Z,90.20
2023-04-10T05:28:56.891Z,1134.13
2023-04-10T05:31:24.541Z,803.60
2023-04-10T05:33:52.320Z,1999.90
2023-04-10T05:36:19.783Z,1547.15
2023-04-10T05:38:47.304Z,134.73
2023-04-10T05:41:16.851Z,71.20
2023-04-10T05:43:44.237Z,58.15
2023-04-10T05:46:12.048Z,50.65
2023-04-10T05:48:39.706Z,44.50
2023-04-10T05:51:07.037Z,40.85
2023-04-10T05:53:34.337Z,40.10
2023-04-10T05:56:02.202Z,32.67
2023-04-10T05:58:29.967Z,32.67
2023-04-10T06:00:58.025Z,24.70
2023-04-10T06:03:27.594Z,20.17
2023-04-10T06:05:54.983Z,16.38
2023-04-10T06:08:22.994Z,15.63
2023-04-10T06:10:50.352Z,16.85
2023-04-10T06:13:17.523Z,20.20
2023-04-10T06:15:44.785Z,14.95
2023-04-10T06:18:12.093Z,14.82
2023-04-10T06:20:39.355Z,13.77
2023-04-10T06:23:07.148Z,13.85
2023-04-10T06:25:34.439Z,15.20
2023-04-10T06:28:01.641Z,16.13
2023-04-10T06:30:28.928Z,12.57
2023-04-10T06:32:56.194Z,13.90
2023-04-10T06:35:23.888Z,13.85
2023-04-10T06:37:51.201Z,13.13
2023-04-10T06:40:18.801Z,12.40
2023-04-10T06:42:46.360Z,11.30
2023-04-10T06:45:13.546Z,10.93
2023-04-10T06:47:40.943Z,11.85
2023-04-10T06:50:08.262Z,12.40
2023-04-10T06:52:35.559Z,11.30
2023-04-10T06:55:02.826Z,12.23
2023-04-10T06:57:30.211Z,11.80
2023-04-10T06:59:57.654Z,15.40
2023-04-10T07:02:25.242Z,10.95
2023-04-10T07:04:53.806Z,13.00
2023-04-10T07:07:21.533Z,13.27
2023-04-10T07:09:49.236Z,12.88
2023-04-10T07:12:17.583Z,14.07
2023-04-10T07:14:45.098Z,12.82
2023-04-10T07:17:12.478Z,13.45
2023-04-10T07:19:40.018Z,12.48
2023-04-10T07:22:09.657Z,10.70
2023-04-10T07:24:36.904Z,11.65
2023-04-10T07:27:04.257Z,11.35
2023-04-10T07:29:32.158Z,11.50
2023-04-10T07:31:59.932Z,11.43
2023-04-10T07:34:32.652Z,15.38
2023-04-10T07:37:02.785Z,10.52
2023-04-10T07:39:31.087Z,14.48
2023-04-10T07:42:01.187Z,10.43
2023-04-10T07:44:28.897Z,10.07
2023-04-10T07:46:57.169Z,11.05
2023-04-10T07:49:27.624Z,18.45
2023-04-10T07:51:56.281Z,9.82
2023-04-10T07:54:23.473Z,9.60
2023-04-10T07:56:53.265Z,8.55
2023-04-10T07:59:27.931Z,27.40
2023-04-10T08:01:55.723Z,10.43
2023-04-10T08:04:23.248Z,12.15
2023-04-10T08:06:51.175Z,8.27
2023-04-10T08:09:18.613Z,9.40
2023-04-10T08:11:47.633Z,8.07
2023-04-10T08:14:18.224Z,8.23
2023-04-10T08:16:47.918Z,7.95
2023-04-10T08:19:15.400Z,9.45
2023-04-10T08:21:42.630Z,7.35
2023-04-10T08:24:14.622Z,97.43
2023-04-10T08:26:41.985Z,7.90
2023-04-10T08:29:09.268Z,13.05
2023-04-10T08:31:36.470Z,6.85
2023-04-10T08:34:04.596Z,6.60
2023-04-10T08:36:32.121Z,6.82
2023-04-10T08:38:59.905Z,9.35
2023-04-10T08:41:27.140Z,9.13
2023-04-10T08:43:54.642Z,8.00
2023-04-10T08:46:24.460Z,18.02
2023-04-10T08:51:49.036Z,7.28
2023-04-10T08:54:26.908Z,5.78
2023-04-10T08:56:56.771Z,5.80
2023-04-10T08:59:45.886Z,6.07
2023-04-10T09:02:13.220Z,6.07
2023-04-10T09:04:40.651Z,5.95
2023-04-10T09:07:08.034Z,5.78
2023-04-10T09:09:35.324Z,6.53
2023-04-10T09:12:04.236Z,6.55
2023-04-10T09:14:32.544Z,5.60
2023-04-10T09:17:11.695Z,6.20
2023-04-10T09:19:39.020Z,6.28
2023-04-10T09:22:06.277Z,6.28
2023-04-10T09:24:37.562Z,5.43
2023-04-10T09:27:05.394Z,5.43
2023-04-10T09:29:49.162Z,6.15
2023-04-10T09:32:35.022Z,8.50
2023-04-10T09:35:02.452Z,6.00
2023-04-10T09:37:33.346Z,6.63
2023-04-10T09:40:00.775Z,5.93
2023-04-10T09:42:32.576Z,5.82
2023-04-10T09:45:00.065Z,5.55
2023-04-10T09:47:27.428Z,6.00
2023-04-10T09:49:55.604Z,5.47
2023-04-10T09:52:24.828Z,5.60
2023-04-10T09:54:52.206Z,5.20
2023-04-10T09:57:20.083Z,5.40
2023-04-10T09:59:51.796Z,5.03
2023-04-10T10:02:20.315Z,5.53
2023-04-10T10:04:48.379Z,5.25
2023-04-10T10:07:17.034Z,4.40
2023-04-10T10:09:45.016Z,5.05
2023-04-10T10:12:13.721Z,5.57
2023-04-10T10:14:59.769Z,4.90
2023-04-10T10:17:30.715Z,5.70
2023-04-10T10:20:02.514Z,4.45
2023-04-10T10:22:30.449Z,4.20
2023-04-10T10:24:57.874Z,4.35
2023-04-10T10:27:26.141Z,4.53
2023-04-10T10:29:54.762Z,4.55
2023-04-10T10:32:22.844Z,4.45
2023-04-10T10:34:53.039Z,4.55
2023-04-10T10:37:21.647Z,5.38
2023-04-10T10:40:07.363Z,4.68
2023-04-10T10:42:46.716Z,4.40
2023-04-10T10:45:40.356Z,3.97
2023-04-10T10:48:08.106Z,4.32
2023-04-10T10:50:54.861Z,4.00
2023-04-10T10:53:32.720Z,4.43
2023-04-10T10:56:00.111Z,4.78
2023-04-10T10:58:46.288Z,4.60
2023-04-10T11:01:13.489Z,4.50
2023-04-10T11:03:40.873Z,4.28
2023-04-10T11:06:09.134Z,4.43
2023-04-10T11:08:36.341Z,4.72
2023-04-10T11:11:05.608Z,4.47
2023-04-10T11:13:33.299Z,4.55
2023-04-10T11:16:02.081Z,5.70
2023-04-10T11:18:56.192Z,4.72
2023-04-10T11:21:34.182Z,4.70
2023-04-10T11:24:01.383Z,4.60
2023-04-10T11:26:43.870Z,4.13
2023-04-10T11:29:20.813Z,4.35
2023-04-10T11:31:48.745Z,4.47
2023-04-10T11:34:16.028Z,4.07
2023-04-10T11:36:43.983Z,4.30
2023-04-10T11:39:17.893Z,4.35
2023-04-10T11:41:49.556Z,3.95
2023-04-10T11:44:35.254Z,3.67
2023-04-10T11:47:02.458Z,3.95
2023-04-10T11:49:31.717Z,4.18
2023-04-10T11:51:59.051Z,3.45
2023-04-10T11:54:26.902Z,4.30
2023-04-10T11:57:01.469Z,3.80
2023-04-10T11:59:29.470Z,3.30
2023-04-10T12:02:06.225Z,3.58
2023-04-10T12:04:34.602Z,2.75
2023-04-10T12:07:01.901Z,4.57
2023-04-10T12:09:29.086Z,2.40
2023-04-10T12:11:59.387Z,3.35
2023-04-10T12:14:42.628Z,2.83
2023-04-10T12:17:10.768Z,3.92
2023-04-10T12:19:39.290Z,3.83
2023-04-10T12:22:07.787Z,2.85
2023-04-10T12:24:51.228Z,3.40
2023-04-10T12:27:21.516Z,3.17
2023-04-10T12:29:49.278Z,3.10
2023-04-10T12:32:16.723Z,3.00
2023-04-10T12:34:50.710Z,2.90
2023-04-10T12:37:17.978Z,3.42
2023-04-10T12:39:45.253Z,3.25
2023-04-10T12:42:13.342Z,2.83
2023-04-10T12:44:53.922Z,2.92
2023-04-10T12:47:21.179Z,3.50
2023-04-10T12:50:10.910Z,2.88
2023-04-10T12:52:39.093Z,2.90
2023-04-10T12:55:16.663Z,3.38
2023-04-10T12:57:44.841Z,3.30
2023-04-10T13:00:12.981Z,2.53
2023-04-10T13:02:41.192Z,2.65
2023-04-10T13:05:09.161Z,2.42
2023-04-10T13:07:39.185Z,2.97
2023-04-10T13:10:07.303Z,3.03
2023-04-10T13:12:35.280Z,2.63
2023-04-10T13:15:02.926Z,2.70
2023-04-10T13:17:30.340Z,3.20
2023-04-10T13:19:57.577Z,2.67
2023-04-10T13:22:24.790Z,2.65
2023-04-10T13:24:51.909Z,3.38
2023-04-10T13:27:19.088Z,3.75
2023-04-10T13:29:46.432Z,5.25
2023-04-10T13:32:13.548Z,3.58
2023-04-10T13:34:40.844Z,3.50
2023-04-10T13:37:08.239Z,3.92
2023-04-10T13:39:35.383Z,3.45
2023-04-10T13:42:02.732Z,3.55
2023-04-10T13:44:29.845Z,3.35
2023-04-10T13:46:58.256Z,3.63
2023-04-10T13:49:25.691Z,3.60
2023-04-10T13:51:52.846Z,3.60
2023-04-10T13:54:20.332Z,3.33
2023-04-10T13:56:48.258Z,3.83
2023-04-10T13:59:15.422Z,3.60
2023-04-10T14:01:42.684Z,4.15
2023-04-10T14:04:09.940Z,3.88
2023-04-10T14:06:37.062Z,3.30
2023-04-10T14:09:04.523Z,3.58
2023-04-10T14:11:31.670Z,3.72
2023-04-10T14:13:59.077Z,3.47
2023-04-10T14:16:26.360Z,3.20
2023-04-10T14:18:55.351Z,3.22
2023-04-10T14:21:22.998Z,3.40
2023-04-10T14:23:50.363Z,3.75
2023-04-10T14:26:17.466Z,3.28
2023-04-10T14:28:44.576Z,3.13
2023-04-10T14:31:12.452Z,3.30
2023-04-10T14:33:39.564Z,3.40
2023-04-10T14:36:07.107Z,3.50
2023-04-10T14:38:34.292Z,3.20
2023-04-10T14:41:01.427Z,2.90
2023-04-10T14:43:28.657Z,3.45
2023-04-10T14:45:55.856Z,3.30
2023-04-10T14:48:23.732Z,3.38
2023-04-10T14:50:50.945Z,4.05
2023-04-10T14:53:18.255Z,3.20
2023-04-10T14:55:45.848Z,3.10
2023-04-10T14:58:13.078Z,3.17
2023-04-10T15:00:40.557Z,2.90
2023-04-10T15:03:08.796Z,3.45
2023-04-10T15:05:36.419Z,3.00
2023-04-10T15:08:03.644Z,3.38
2023-04-10T15:10:31.050Z,3.25
2023-04-10T15:12:58.421Z,3.60
2023-04-10T15:15:25.555Z,3.08
2023-04-10T15:17:52.781Z,3.22
2023-04-10T15:20:19.963Z,3.53
2023-04-10T15:22:48.474Z,3.47
2023-04-10T15:25:15.732Z,3.40
2023-04-10T15:27:42.937Z,3.13
2023-04-10T15:30:10.302Z,3.50
2023-04-10T15:32:38.435Z,3.33
2023-04-10T15:35:06.034Z,3.38
2023-04-10T15:37:35.342Z,4.07
2023-04-10T15:40:04.183Z,3.35
2023-04-10T15:42:31.445Z,3.28
2023-04-10T15:44:58.571Z,3.92
2023-04-10T15:47:25.866Z,3.45
2023-04-10T15:49:53.153Z,3.58
2023-04-10T15:52:20.567Z,3.75
2023-04-10T15:54:47.745Z,3.38
2023-04-10T15:57:15.248Z,6.50
2023-04-10T15:59:42.365Z,3.97
2023-04-10T16:02:09.813Z,3.95
2023-04-10T16:04:37.151Z,3.30
2023-04-10T16:07:04.396Z,3.42
2023-04-10T16:09:31.567Z,3.47
2023-04-10T16:11:59.031Z,3.40
2023-04-10T16:14:26.186Z,3.55
2023-04-10T16:16:53.437Z,3.38
2023-04-10T16:19:21.084Z,3.42
2023-04-10T16:21:50.212Z,3.65
2023-04-10T16:24:17.467Z,3.38
2023-04-10T16:26:44.595Z,4.30
2023-04-10T16:29:11.735Z,4.13
2023-04-10T16:31:41.400Z,3.50
2023-04-10T16:34:08.566Z,3.28
2023-04-10T16:36:35.796Z,3.25
2023-04-10T16:39:03.819Z,3.70
2023-04-10T16:41:30.987Z,3.22
2023-04-10T16:43:58.111Z,3.47
2023-04-10T16:46:25.617Z,3.42
2023-04-10T16:48:52.923Z,3.60
2023-04-10T16:51:20.088Z,3.53
2023-04-10T16:53:47.253Z,3.17
2023-04-10T16:56:14.505Z,3.40
2023-04-10T16:58:42.134Z,3.10
2023-04-10T17:01:16.701Z,3.60
2023-04-10T17:03:44.120Z,4.07
2023-04-10T17:06:11.323Z,3.30
2023-04-10T17:08:38.492Z,4.00
2023-04-10T17:11:05.781Z,3.63
2023-04-10T17:13:33.242Z,3.63
2023-04-10T17:16:00.465Z,3.67
2023-04-10T17:18:28.528Z,3.47
2023-04-10T17:20:55.690Z,3.63
2023-04-10T17:23:22.821Z,4.22
2023-04-10T17:25:50.120Z,3.65
2023-04-10T17:28:17.391Z,5.95
2023-04-10T17:30:44.505Z,3.50
2023-04-10T17:33:11.637Z,3.85
2023-04-10T17:35:39.738Z,3.30
2023-04-10T17:38:06.929Z,3.63
2023-04-10T17:40:34.128Z,3.90
2023-04-10T17:43:01.228Z,3.30
2023-04-10T17:45:28.318Z,6.32
2023-04-10T17:47:55.619Z,3.40
2023-04-10T17:50:22.865Z,3.42
2023-04-10T17:52:49.980Z,3.70
2023-04-10T17:55:21.428Z,3.47
2023-04-10T17:57:49.109Z,3.53
2023-04-10T18:00:20.050Z,4.35
2023-04-10T18:02:48.348Z,3.50
2023-04-10T18:05:15.984Z,3.95
2023-04-10T18:07:43.194Z,4.13
2023-04-10T18:10:11.508Z,4.32
2023-04-10T18:12:38.748Z,4.57
2023-04-10T18:15:06.176Z,4.30
2023-04-10T18:17:33.465Z,4.07
2023-04-10T18:20:00.619Z,3.70
2023-04-10T18:22:28.862Z,3.95
2023-04-10T18:24:55.983Z,4.18
2023-04-10T18:27:23.135Z,4.03
2023-04-10T18:29:50.374Z,4.18
2023-04-10T18:32:17.487Z,4.47
2023-04-10T18:34:44.824Z,3.55
2023-04-10T18:37:11.981Z,4.15
2023-04-10T18:39:39.125Z,3.75
2023-04-10T18:42:09.005Z,3.53
2023-04-10T18:44:36.176Z,4.05
2023-04-10T18:47:05.124Z,4.25
2023-04-10T18:49:32.581Z,12.45
2023-04-10T18:51:59.734Z,3.63
2023-04-10T18:54:29.651Z,3.92
2023-04-10T18:56:56.971Z,5.30
2023-04-10T18:59:24.190Z,3.83
2023-04-10T19:01:51.449Z,3.33
2023-04-10T19:04:18.704Z,4.18
2023-04-10T19:06:46.859Z,4.60
2023-04-10T19:09:14.533Z,3.72
2023-04-10T19:11:42.792Z,4.10
2023-04-10T19:14:10.016Z,4.05
2023-04-10T19:16:37.303Z,4.13
2023-04-10T19:19:04.451Z,4.25
2023-04-10T19:21:32.029Z,5.07
2023-04-10T19:23:59.208Z,3.88
2023-04-10T19:26:26.351Z,8.65
2023-04-10T19:28:54.066Z,5.15
2023-04-10T19:31:21.541Z,4.40
2023-04-10T19:33:48.717Z,4.10
2023-04-10T19:36:16.683Z,4.75
2023-04-10T19:38:48.572Z,5.28
2023-04-10T19:41:16.120Z,4.22
2023-04-10T19:43:43.605Z,4.75
2023-04-10T19:46:17.746Z,4.80
2023-04-10T19:48:45.234Z,4.47
2023-04-10T19:51:13.104Z,4.75
2023-04-10T19:53:40.504Z,4.35
2023-04-10T19:56:07.905Z,4.30
2023-04-10T19:58:40.459Z,6.45
2023-04-10T20:01:12.349Z,4.38
2023-04-10T20:03:39.973Z,4.88
2023-04-10T20:06:07.799Z,4.85
2023-04-10T20:08:35.764Z,4.40
2023-04-10T20:11:06.299Z,4.43
2023-04-10T20:13:34.739Z,4.93
2023-04-10T20:16:02.142Z,4.68
2023-04-10T20:18:29.313Z,4.50
2023-04-10T20:20:56.586Z,4.47
2023-04-10T20:23:23.697Z,5.30
2023-04-10T20:25:50.844Z,5.00
2023-04-10T20:28:18.077Z,4.47
2023-04-10T20:30:46.294Z,5.13
2023-04-10T20:33:13.420Z,4.60
2023-04-10T20:35:40.871Z,5.50
2023-04-10T20:38:08.096Z,4.72
2023-04-10T20:40:35.967Z,4.13
2023-04-10T20:43:03.184Z,3.90
2023-04-10T20:45:30.329Z,4.28
2023-04-10T20:47:58.040Z,4.22
2023-04-10T20:50:25.347Z,4.55
2023-04-10T20:52:52.453Z,4.43
2023-04-10T20:55:19.662Z,5.30
2023-04-10T20:57:46.780Z,6.07
2023-04-10T21:00:14.142Z,6.13
2023-04-10T21:02:41.393Z,3.95
2023-04-10T21:05:08.828Z,3.60
2023-04-10T21:07:36.122Z,4.50
2023-04-10T21:10:03.774Z,4.85
2023-04-10T21:12:31.246Z,4.03
2023-04-10T21:14:58.381Z,4.47
2023-04-10T21:17:28.895Z,5.47
2023-04-10T21:19:56.091Z,4.75
2023-04-10T21:22:23.337Z,3.80
2023-04-10T21:24:50.534Z,4.00
2023-04-10T21:29:56.843Z,3.72
2023-04-10T21:32:24.057Z,3.92
2023-04-10T21:34:51.315Z,3.65
2023-04-10T21:37:18.606Z,4.07
2023-04-10T21:39:45.938Z,3.65
2023-04-10T21:42:13.132Z,4.38
2023-04-10T21:44:40.557Z,4.22
2023-04-10T21:47:07.780Z,3.90
2023-04-10T21:49:35.281Z,4.00
2023-04-10T21:52:02.545Z,3.88
2023-04-10T21:54:29.819Z,3.50
2023-04-10T21:56:57.537Z,3.70
2023-04-10T21:59:24.861Z,3.83
2023-04-10T22:01:52.145Z,3.63
2023-04-10T22:04:19.581Z,4.10
2023-04-10T22:06:46.830Z,3.72
2023-04-10T22:09:14.136Z,3.92
2023-04-10T22:11:41.432Z,3.50
2023-04-10T22:14:17.247Z,4.25
2023-04-10T22:16:46.040Z,3.80
2023-04-10T22:19:13.328Z,4.22
2023-04-10T22:21:40.656Z,3.78
2023-04-10T22:24:08.006Z,3.50
2023-04-10T22:26:35.569Z,3.75
2023-04-10T22:29:03.700Z,3.88
2023-04-10T22:31:31.165Z,3.90
2023-04-10T22:33:58.505Z,3.95
2023-04-10T22:36:31.444Z,3.60
2023-04-10T22:38:58.695Z,3.97
2023-04-10T22:41:25.987Z,3.35
2023-04-10T22:43:53.268Z,3.60
2023-04-10T22:46:20.651Z,6.30
2023-04-10T22:48:47.976Z,4.00
2023-04-10T22:51:15.326Z,4.00
2023-04-10T22:53:42.633Z,3.97
2023-04-10T22:56:10.488Z,3.75
2023-04-10T22:58:41.188Z,4.00
2023-04-10T23:01:08.801Z,4.38
2023-04-10T23:03:36.272Z,3.88
2023-04-10T23:06:03.620Z,3.90
2023-04-10T23:08:30.873Z,3.75
2023-04-10T23:10:58.108Z,4.35
2023-04-10T23:13:25.628Z,3.70
2023-04-10T23:15:54.434Z,4.60
2023-04-10T23:18:21.859Z,3.97
2023-04-10T23:20:49.917Z,4.25
2023-04-10T23:23:17.251Z,4.45
2023-04-10T23:25:44.766Z,4.10
2023-04-10T23:28:12.049Z,4.38
2023-04-10T23:30:39.727Z,7.55
2023-04-10T23:33:06.960Z,4.13
2023-04-10T23:35:34.313Z,4.82
2023-04-10T23:38:01.780Z,3.78
2023-04-10T23:40:29.028Z,3.85
2023-04-10T23:42:56.443Z,5.53
2023-04-10T23:45:23.798Z,3.97
2023-04-10T23:47:51.163Z,3.83
2023-04-10T23:50:18.601Z,3.78
2023-04-10T23:52:50.016Z,4.10
2023-04-10T23:55:17.343Z,4.18
2023-04-10T23:57:44.671Z,4.05
